createdAt,value
2022-11-24T00:01:16.779Z,21.97
2022-11-24T00:03:46.161Z,21.23
2022-11-24T00:06:17.005Z,20.93
2022-11-24T00:08:47.238Z,20.50
2022-11-24T00:11:17.536Z,22.23
2022-11-24T00:13:47.638Z,20.57
2022-11-24T00:16:17.772Z,21.60
2022-11-24T00:18:49.454Z,20.50
2022-11-24T00:21:19.272Z,20.53
2022-11-24T00:23:48.290Z,20.40
2022-11-24T00:26:18.886Z,20.83
2022-11-24T00:28:49.898Z,20.03
2022-11-24T00:31:20.271Z,20.40
2022-11-24T00:33:50.080Z,20.80
2022-11-24T00:36:19.432Z,23.10
2022-11-24T00:38:48.005Z,21.00
2022-11-24T00:41:16.416Z,21.60
2022-11-24T00:43:44.801Z,22.00
2022-11-24T00:46:14.993Z,19.67
2022-11-24T00:48:43.435Z,19.90
2022-11-24T00:51:13.642Z,21.27
2022-11-24T00:53:42.294Z,21.13
2022-11-24T00:56:11.612Z,21.83
2022-11-24T00:58:40.622Z,22.67
2022-11-24T01:01:13.075Z,22.13
2022-11-24T01:03:43.485Z,20.47
2022-11-24T01:06:13.997Z,21.47
2022-11-24T01:08:42.863Z,23.00
2022-11-24T01:11:13.077Z,23.30
2022-11-24T01:13:42.974Z,22.63
2022-11-24T01:16:17.023Z,22.20
2022-11-24T01:18:47.257Z,22.17
2022-11-24T01:21:15.964Z,22.47
2022-11-24T01:23:44.823Z,22.77
2022-11-24T01:26:15.556Z,22.57
2022-11-24T01:28:46.944Z,22.97
2022-11-24T01:31:16.561Z,23.57
2022-11-24T01:33:46.440Z,23.33
2022-11-24T01:36:14.857Z,23.17
2022-11-24T01:38:43.270Z,23.07
2022-11-24T01:41:14.346Z,24.40
2022-11-24T01:43:43.339Z,23.67
2022-11-24T01:46:19.063Z,24.03
2022-11-24T01:48:52.948Z,24.33
2022-11-24T01:51:25.175Z,23.23
2022-11-24T01:53:58.088Z,23.27
2022-11-24T01:56:26.932Z,21.87
2022-11-24T01:58:58.618Z,23.33
2022-11-24T02:01:29.435Z,22.80
2022-11-24T02:04:00.523Z,22.07
2022-11-24T02:06:31.682Z,20.30
2022-11-24T02:09:04.720Z,21.77
2022-11-24T02:11:37.229Z,22.30
2022-11-24T02:14:07.584Z,20.30
2022-11-24T02:16:37.973Z,21.43
2022-11-24T02:19:14.589Z,21.20
2022-11-24T02:21:43.002Z,21.47
2022-11-24T02:24:20.310Z,21.80
2022-11-24T02:26:52.215Z,20.40
2022-11-24T02:29:21.517Z,21.57
2022-11-24T02:31:54.281Z,21.70
2022-11-24T02:34:22.648Z,22.87
2022-11-24T02:36:51.025Z,22.93
2022-11-24T02:39:19.458Z,25.07
2022-11-24T02:41:53.846Z,23.77
2022-11-24T02:44:25.389Z,25.60
2022-11-24T02:47:03.767Z,24.80
2022-11-24T02:49:32.169Z,25.83
2022-11-24T02:52:00.626Z,25.70
2022-11-24T02:54:29.106Z,26.00
2022-11-24T02:56:58.889Z,26.53
2022-11-24T02:59:27.432Z,26.33
2022-11-24T03:01:55.855Z,27.50
2022-11-24T03:04:24.296Z,24.53
2022-11-24T03:06:52.696Z,25.50
2022-11-24T03:09:21.062Z,26.43
2022-11-24T03:11:49.480Z,25.73
2022-11-24T03:14:19.234Z,25.43
2022-11-24T03:16:47.639Z,26.93
2022-11-24T03:19:16.025Z,26.57
2022-11-24T03:21:44.352Z,25.27
2022-11-24T03:24:12.707Z,23.70
2022-11-24T03:26:42.013Z,26.60
2022-11-24T03:29:10.672Z,26.77
2022-11-24T03:31:40.502Z,26.63
2022-11-24T03:34:09.086Z,26.13
2022-11-24T03:36:37.507Z,26.07
2022-11-24T03:39:05.991Z,27.47
2022-11-24T03:41:34.374Z,26.67
2022-11-24T03:44:02.956Z,25.63
2022-11-24T03:46:31.411Z,24.30
2022-11-24T03:49:01.325Z,25.23
2022-11-24T03:51:29.701Z,23.60
2022-11-24T03:53:58.137Z,23.27
2022-11-24T03:56:26.515Z,24.10
2022-11-24T03:58:54.909Z,20.70
2022-11-24T04:01:23.326Z,22.60
2022-11-24T04:03:51.771Z,22.30
2022-11-24T04:06:21.523Z,22.47
2022-11-24T04:08:49.881Z,21.93
2022-11-24T04:11:32.044Z,22.67
2022-11-24T04:14:00.368Z,21.43
2022-11-24T04:16:29.070Z,23.07
2022-11-24T04:18:57.454Z,21.13
2022-11-24T04:21:27.179Z,20.27
2022-11-24T04:23:55.534Z,20.47
2022-11-24T04:26:23.916Z,20.20
2022-11-24T04:28:52.305Z,21.60
2022-11-24T04:31:20.775Z,22.97
2022-11-24T04:33:49.189Z,21.87
2022-11-24T04:36:17.534Z,20.70
2022-11-24T04:39:23.378Z,21.20
2022-11-24T04:41:35.611Z,20.73
2022-11-24T04:44:04.011Z,20.07
2022-11-24T04:46:32.658Z,21.27
2022-11-24T04:49:01.021Z,19.47
2022-11-24T04:51:29.404Z,19.03
2022-11-24T04:53:59.186Z,19.93
2022-11-24T04:56:27.543Z,19.23
2022-11-24T04:58:55.883Z,19.70
2022-11-24T05:01:24.351Z,18.87
2022-11-24T05:03:55.506Z,19.53
2022-11-24T05:06:24.511Z,21.03
2022-11-24T05:08:53.854Z,19.73
2022-11-24T05:11:23.652Z,21.03
2022-11-24T05:13:53.997Z,20.87
2022-11-24T05:16:22.349Z,20.93
2022-11-24T05:18:50.758Z,20.23
2022-11-24T05:21:19.747Z,21.10
2022-11-24T05:23:48.006Z,21.67
2022-11-24T05:26:16.290Z,20.40
2022-11-24T05:28:45.924Z,21.07
2022-11-24T05:31:14.271Z,21.83
2022-11-24T05:33:43.439Z,21.37
2022-11-24T05:36:33.304Z,21.17
2022-11-24T05:39:01.841Z,20.90
2022-11-24T05:41:30.147Z,21.77
2022-11-24T05:43:59.780Z,23.07
2022-11-24T05:46:28.227Z,21.33
2022-11-24T05:48:56.547Z,22.17
2022-11-24T05:51:24.806Z,20.93
2022-11-24T05:53:52.906Z,24.03
2022-11-24T05:56:21.024Z,23.23
2022-11-24T05:58:49.074Z,23.90
2022-11-24T06:01:18.395Z,23.40
2022-11-24T06:03:46.419Z,25.37
2022-11-24T06:06:14.466Z,27.20
2022-11-24T06:08:42.454Z,27.27
2022-11-24T06:11:19.618Z,27.20
2022-11-24T06:13:49.543Z,25.60
2022-11-24T06:16:19.113Z,23.67
2022-11-24T06:18:47.093Z,25.73
2022-11-24T06:21:15.164Z,24.80
2022-11-24T06:23:43.125Z,24.57
2022-11-24T06:26:11.147Z,25.03
2022-11-24T06:28:39.194Z,22.77
2022-11-24T06:31:07.489Z,24.03
2022-11-24T06:33:38.302Z,23.57
2022-11-24T06:36:08.444Z,22.30
2022-11-24T06:38:37.501Z,23.77
2022-11-24T06:41:07.598Z,23.00
2022-11-24T06:43:36.318Z,23.67
2022-11-24T06:46:05.186Z,22.27
2022-11-24T06:48:33.264Z,22.10
2022-11-24T06:51:03.988Z,22.63
2022-11-24T06:53:32.655Z,22.20
2022-11-24T06:56:01.720Z,22.53
2022-11-24T07:01:27.692Z,21.33
2022-11-24T07:03:56.593Z,21.80
2022-11-24T07:06:27.150Z,22.80
2022-11-24T07:08:55.172Z,22.00
2022-11-24T07:11:25.076Z,24.27
2022-11-24T07:13:59.484Z,24.23
2022-11-24T07:16:29.218Z,26.03
2022-11-24T07:18:57.552Z,24.93
2022-11-24T07:21:31.653Z,26.60
2022-11-24T07:24:00.044Z,26.07
2022-11-24T07:26:28.279Z,27.77
2022-11-24T07:28:56.376Z,25.47
2022-11-24T07:31:25.991Z,27.17
2022-11-24T07:33:55.654Z,27.17
2022-11-24T07:36:24.606Z,26.90
2022-11-24T07:38:53.919Z,27.10
2022-11-24T07:41:22.339Z,26.07
2022-11-24T07:43:50.673Z,27.20
2022-11-24T07:46:20.907Z,27.03
2022-11-24T07:48:49.038Z,26.43
2022-11-24T07:51:17.388Z,26.40
2022-11-24T07:53:46.349Z,25.70
2022-11-24T07:56:15.792Z,25.27
2022-11-24T07:58:48.363Z,25.53
2022-11-24T08:01:20.887Z,26.00
2022-11-24T08:03:49.015Z,27.20
2022-11-24T08:06:28.638Z,27.63
2022-11-24T08:09:00.721Z,29.57
2022-11-24T08:11:31.527Z,30.70
2022-11-24T08:13:59.621Z,31.23
2022-11-24T08:16:27.681Z,32.33
2022-11-24T08:18:56.864Z,30.23
2022-11-24T08:21:25.662Z,30.93
2022-11-24T08:23:56.485Z,32.23
2022-11-24T08:26:25.564Z,31.50
2022-11-24T08:28:57.498Z,33.00
2022-11-24T08:31:32.856Z,31.10
2022-11-24T08:34:02.057Z,30.47
2022-11-24T08:36:30.465Z,30.57
2022-11-24T08:38:59.697Z,30.00
2022-11-24T08:41:28.230Z,32.50
2022-11-24T08:43:57.716Z,30.60
2022-11-24T08:46:25.936Z,31.93
2022-11-24T08:48:55.946Z,28.87
2022-11-24T08:51:26.159Z,31.13
2022-11-24T08:53:56.768Z,31.67
2022-11-24T08:56:24.942Z,31.23
2022-11-24T08:58:54.126Z,31.10
2022-11-24T09:01:24.044Z,32.57
2022-11-24T09:03:52.742Z,30.97
2022-11-24T09:06:23.773Z,30.93
2022-11-24T09:08:51.939Z,30.10
2022-11-24T09:11:20.504Z,30.70
2022-11-24T09:13:48.574Z,32.37
2022-11-24T09:16:18.387Z,34.10
2022-11-24T09:18:48.607Z,31.67
2022-11-24T09:21:18.766Z,32.67
2022-11-24T09:23:48.480Z,33.03
2022-11-24T09:26:19.297Z,33.23
2022-11-24T09:28:48.143Z,33.57
2022-11-24T09:31:18.656Z,36.23
2022-11-24T09:33:48.403Z,36.67
2022-11-24T09:36:16.601Z,36.00
2022-11-24T09:38:44.610Z,35.50
2022-11-24T09:41:27.928Z,34.17
2022-11-24T09:44:03.353Z,33.93
2022-11-24T09:46:37.272Z,34.47
2022-11-24T09:49:12.643Z,38.70
2022-11-24T09:51:43.961Z,38.00
2022-11-24T09:54:17.363Z,37.73
2022-11-24T09:56:46.579Z,37.53
2022-11-24T09:59:17.698Z,37.00
2022-11-24T10:01:47.698Z,37.23
2022-11-24T10:04:20.891Z,38.67
2022-11-24T10:06:55.823Z,37.67
2022-11-24T10:09:39.298Z,37.33
2022-11-24T10:12:20.906Z,37.27
2022-11-24T10:15:21.623Z,38.80
2022-11-24T10:18:17.057Z,36.93
2022-11-24T10:20:55.826Z,37.87
2022-11-24T10:23:39.706Z,40.13
2022-11-24T10:26:16.573Z,37.53
2022-11-24T10:28:50.009Z,41.87
2022-11-24T10:31:29.856Z,42.23
2022-11-24T10:34:01.745Z,42.73
2022-11-24T10:36:46.580Z,44.87
2022-11-24T10:39:20.552Z,42.57
2022-11-24T10:41:53.517Z,40.13
2022-11-24T10:44:21.851Z,35.93
2022-11-24T10:46:50.017Z,36.03
2022-11-24T10:49:23.494Z,36.50
2022-11-24T10:52:05.144Z,37.53
2022-11-24T10:54:35.733Z,35.90
2022-11-24T10:57:04.178Z,38.17
2022-11-24T10:59:38.225Z,36.03
2022-11-24T11:02:29.070Z,37.07
2022-11-24T11:04:57.465Z,35.97
2022-11-24T11:07:27.669Z,36.53
2022-11-24T11:10:29.053Z,36.03
2022-11-24T11:12:57.087Z,39.03
2022-11-24T11:15:27.400Z,40.20
2022-11-24T11:17:59.687Z,38.80
2022-11-24T11:20:33.042Z,39.27
2022-11-24T11:23:15.455Z,40.40
2022-11-24T11:25:43.703Z,42.40
2022-11-24T11:28:28.152Z,42.97
2022-11-24T11:31:17.993Z,44.13
2022-11-24T11:34:08.062Z,39.17
2022-11-24T11:36:43.230Z,38.13
2022-11-24T11:39:23.103Z,34.33
2022-11-24T11:41:54.818Z,34.20
2022-11-24T11:44:34.658Z,37.00
2022-11-24T11:47:12.326Z,35.53
2022-11-24T11:49:40.543Z,36.67
2022-11-24T11:52:39.577Z,33.90
2022-11-24T11:55:49.965Z,32.73
2022-11-24T11:58:50.780Z,29.87
2022-11-24T12:01:46.268Z,32.70
2022-11-24T12:04:21.472Z,33.37
2022-11-24T12:07:05.518Z,32.63
2022-11-24T12:09:48.017Z,31.67
2022-11-24T12:12:38.916Z,34.50
2022-11-24T12:15:13.394Z,32.17
2022-11-24T12:17:48.445Z,32.20
2022-11-24T12:20:32.798Z,32.57
2022-11-24T12:23:06.852Z,30.87
2022-11-24T12:25:39.338Z,29.63
2022-11-24T12:28:23.505Z,31.83
2022-11-24T12:31:05.278Z,29.87
2022-11-24T12:34:03.072Z,30.23
2022-11-24T12:36:46.005Z,29.73
2022-11-24T12:39:26.049Z,29.57
2022-11-24T12:42:05.788Z,28.93
2022-11-24T12:44:52.447Z,29.53
2022-11-24T12:47:27.932Z,29.60
2022-11-24T12:50:09.241Z,28.80
2022-11-24T12:52:41.373Z,28.87
2022-11-24T12:55:16.027Z,29.83
2022-11-24T12:57:49.992Z,28.17
2022-11-24T13:00:23.043Z,32.27
2022-11-24T13:03:10.001Z,32.87
2022-11-24T13:05:46.712Z,33.27
2022-11-24T13:08:16.030Z,32.30
2022-11-24T13:11:00.863Z,31.87
2022-11-24T13:13:50.496Z,30.50
2022-11-24T13:16:44.405Z,32.17
2022-11-24T13:19:14.928Z,31.90
2022-11-24T13:22:03.803Z,31.80
2022-11-24T13:24:33.859Z,30.20
2022-11-24T13:27:28.767Z,29.03
2022-11-24T13:29:56.812Z,29.17
2022-11-24T13:32:51.535Z,28.97
2022-11-24T13:35:20.953Z,27.60
2022-11-24T13:37:51.737Z,27.43
2022-11-24T13:40:45.835Z,27.37
2022-11-24T13:43:24.435Z,27.53
2022-11-24T13:45:53.842Z,28.57
2022-11-24T13:49:02.305Z,28.83
2022-11-24T13:51:31.701Z,27.63
2022-11-24T13:54:01.089Z,28.60
2022-11-24T13:56:31.636Z,27.27
2022-11-24T13:59:02.275Z,29.53
2022-11-24T14:01:32.522Z,30.40
2022-11-24T14:07:05.507Z,35.10
2022-11-24T14:09:40.775Z,33.27
2022-11-24T14:12:14.926Z,32.60
2022-11-24T14:14:44.130Z,31.13
2022-11-24T14:17:22.318Z,30.07
2022-11-24T14:19:52.140Z,31.10
2022-11-24T14:22:26.829Z,29.60
2022-11-24T14:24:56.971Z,28.57
2022-11-24T14:27:30.552Z,29.10
2022-11-24T14:30:00.514Z,29.27
2022-11-24T14:32:28.976Z,29.80
2022-11-24T14:34:57.350Z,30.87
2022-11-24T14:37:26.783Z,30.60
2022-11-24T14:39:54.758Z,32.70
2022-11-24T14:42:24.698Z,30.53
2022-11-24T14:44:56.592Z,32.90
2022-11-24T14:47:31.466Z,33.57
2022-11-24T14:50:09.961Z,36.87
2022-11-24T14:52:46.706Z,36.53
2022-11-24T14:55:29.546Z,32.80
2022-11-24T14:57:57.858Z,35.60
2022-11-24T15:00:30.484Z,31.10
2022-11-24T15:03:16.076Z,32.33
2022-11-24T15:05:55.513Z,34.23
2022-11-24T15:08:26.296Z,33.80
2022-11-24T15:10:59.876Z,34.23
2022-11-24T15:13:28.465Z,32.40
2022-11-24T15:16:02.986Z,33.30
2022-11-24T15:18:37.674Z,33.17
2022-11-24T15:21:05.751Z,33.10
2022-11-24T15:23:36.392Z,34.73
2022-11-24T15:26:31.272Z,34.23
2022-11-24T15:29:01.117Z,31.57
2022-11-24T15:31:29.177Z,33.77
2022-11-24T15:33:57.191Z,35.33
2022-11-24T15:36:25.162Z,32.37
2022-11-24T15:38:54.475Z,32.47
2022-11-24T15:41:25.712Z,34.07
2022-11-24T15:43:58.894Z,32.40
2022-11-24T15:46:27.881Z,35.57
2022-11-24T15:48:56.065Z,32.63
2022-11-24T15:51:27.095Z,32.13
2022-11-24T15:54:01.088Z,31.83
2022-11-24T15:56:32.706Z,33.33
2022-11-24T15:59:00.939Z,32.93
2022-11-24T16:01:31.550Z,32.97
2022-11-24T16:03:59.673Z,32.47
2022-11-24T16:06:27.637Z,32.90
2022-11-24T16:08:58.159Z,31.90
2022-11-24T16:11:26.253Z,30.67
2022-11-24T16:13:54.757Z,30.10
2022-11-24T16:16:24.870Z,31.10
2022-11-24T16:18:53.257Z,33.63
2022-11-24T16:21:21.288Z,31.20
2022-11-24T16:23:49.264Z,30.17
2022-11-24T16:26:19.036Z,36.40
2022-11-24T16:28:47.001Z,34.17
2022-11-24T16:31:16.220Z,35.93
2022-11-24T16:33:46.289Z,31.17
2022-11-24T16:36:14.719Z,31.20
2022-11-24T16:38:42.754Z,30.57
2022-11-24T16:41:11.081Z,30.30
2022-11-24T16:43:40.470Z,31.57
2022-11-24T16:46:18.460Z,31.00
2022-11-24T16:48:46.891Z,30.20
2022-11-24T16:51:15.842Z,36.00
2022-11-24T16:53:44.063Z,33.67
2022-11-24T16:56:12.526Z,30.63
2022-11-24T16:58:42.690Z,31.77
2022-11-24T17:01:12.607Z,33.97
2022-11-24T17:03:41.125Z,33.93
2022-11-24T17:06:11.304Z,31.87
2022-11-24T17:08:41.057Z,33.20
2022-11-24T17:11:10.268Z,31.47
2022-11-24T17:13:39.086Z,34.67
2022-11-24T17:16:11.534Z,35.90
2022-11-24T17:18:39.989Z,36.20
2022-11-24T17:21:10.486Z,37.13
2022-11-24T17:23:38.907Z,39.87
2022-11-24T17:26:08.845Z,38.47
2022-11-24T17:28:37.651Z,39.43
2022-11-24T17:31:11.069Z,35.07
2022-11-24T17:33:39.036Z,35.07
2022-11-24T17:36:08.043Z,34.87
2022-11-24T17:38:36.935Z,35.83
2022-11-24T17:41:05.101Z,32.53
2022-11-24T17:43:33.752Z,32.03
2022-11-24T17:46:03.577Z,33.73
2022-11-24T17:48:33.887Z,40.37
2022-11-24T17:51:03.267Z,43.23
2022-11-24T17:53:32.043Z,45.83
2022-11-24T17:56:01.289Z,41.77
2022-11-24T17:58:29.329Z,43.77
2022-11-24T18:00:58.326Z,45.57
2022-11-24T18:03:28.771Z,43.13
2022-11-24T18:05:58.282Z,47.87
2022-11-24T18:08:26.254Z,43.77
2022-11-24T18:10:54.233Z,45.67
2022-11-24T18:13:54.436Z,45.77
2022-11-24T18:16:13.661Z,41.00
2022-11-24T18:18:45.970Z,42.60
2022-11-24T18:21:18.815Z,39.93
2022-11-24T18:23:47.297Z,42.83
2022-11-24T18:26:16.514Z,43.67
2022-11-24T18:28:45.733Z,43.63
2022-11-24T18:31:15.473Z,42.23
2022-11-24T18:33:44.705Z,45.30
2022-11-24T18:36:14.886Z,44.70
2022-11-24T18:38:44.254Z,46.60
2022-11-24T18:41:13.311Z,51.23
2022-11-24T18:43:41.587Z,48.50
2022-11-24T18:46:12.471Z,48.77
2022-11-24T18:48:40.504Z,49.93
2022-11-24T18:51:08.712Z,50.50
2022-11-24T18:53:36.731Z,51.43
2022-11-24T18:56:08.115Z,52.80
2022-11-24T18:58:36.949Z,52.20
2022-11-24T19:01:09.357Z,52.10
2022-11-24T19:03:44.957Z,49.13
2022-11-24T19:06:17.606Z,49.73
2022-11-24T19:08:46.027Z,47.37
2022-11-24T19:11:20.194Z,46.77
2022-11-24T19:13:49.124Z,46.07
2022-11-24T19:16:17.949Z,46.17
2022-11-24T19:18:51.870Z,45.47
2022-11-24T19:21:21.819Z,45.20
2022-11-24T19:23:50.226Z,45.43
2022-11-24T19:26:19.925Z,47.00
2022-11-24T19:28:48.025Z,49.27
2022-11-24T19:31:17.096Z,49.70
2022-11-24T19:33:45.844Z,48.30
2022-11-24T19:36:15.376Z,50.50
2022-11-24T19:38:44.060Z,52.10
2022-11-24T19:41:14.213Z,46.60
2022-11-24T19:43:43.633Z,44.53
2022-11-24T19:46:13.847Z,47.53
2022-11-24T19:48:43.974Z,43.60
2022-11-24T19:51:14.255Z,42.47
2022-11-24T19:53:43.233Z,41.17
2022-11-24T19:56:13.509Z,43.63
2022-11-24T19:58:43.496Z,43.07
2022-11-24T20:01:13.236Z,43.67
2022-11-24T20:03:42.316Z,44.47
2022-11-24T20:06:12.588Z,43.57
2022-11-24T20:08:42.351Z,43.10
2022-11-24T20:11:12.733Z,42.57
2022-11-24T20:13:43.537Z,41.77
2022-11-24T20:16:13.473Z,43.47
2022-11-24T20:18:43.902Z,40.60
2022-11-24T20:21:13.695Z,42.27
2022-11-24T20:23:42.140Z,41.40
2022-11-24T20:26:12.094Z,40.13
2022-11-24T20:28:40.646Z,41.97
2022-11-24T20:31:11.787Z,37.17
2022-11-24T20:33:40.696Z,39.93
2022-11-24T20:36:10.971Z,40.73
2022-11-24T20:38:39.891Z,40.40
2022-11-24T20:41:09.661Z,40.70
2022-11-24T20:43:37.883Z,41.40
2022-11-24T20:46:08.058Z,41.70
2022-11-24T20:48:37.804Z,43.27
2022-11-24T20:51:06.813Z,42.80
2022-11-24T20:53:35.147Z,42.47
2022-11-24T20:56:06.151Z,44.20
2022-11-24T20:58:35.404Z,44.60
2022-11-24T21:01:07.889Z,48.17
2022-11-24T21:03:42.882Z,44.80
2022-11-24T21:06:11.805Z,42.00
2022-11-24T21:08:41.352Z,40.83
2022-11-24T21:11:11.081Z,43.30
2022-11-24T21:13:40.438Z,43.07
2022-11-24T21:16:13.743Z,43.83
2022-11-24T21:18:43.577Z,45.07
2022-11-24T21:21:11.824Z,47.80
2022-11-24T21:23:39.915Z,46.17
2022-11-24T21:26:15.060Z,45.20
2022-11-24T21:28:45.871Z,47.87
2022-11-24T21:31:15.762Z,47.60
2022-11-24T21:33:46.562Z,47.37
2022-11-24T21:36:16.392Z,46.70
2022-11-24T21:38:44.938Z,47.40
2022-11-24T21:41:14.043Z,49.70
2022-11-24T21:43:42.149Z,49.20
2022-11-24T21:46:12.433Z,48.30
2022-11-24T21:48:41.474Z,47.03
2022-11-24T21:51:13.941Z,48.17
2022-11-24T21:53:42.267Z,48.10
2022-11-24T21:56:13.092Z,46.00
2022-11-24T21:58:46.690Z,46.30
2022-11-24T22:01:16.003Z,44.67
2022-11-24T22:03:44.123Z,45.10
2022-11-24T22:06:13.527Z,45.50
2022-11-24T22:08:41.604Z,47.17
2022-11-24T22:11:12.752Z,44.87
2022-11-24T22:13:41.707Z,45.60
2022-11-24T22:16:11.493Z,44.40
2022-11-24T22:18:41.332Z,47.40
2022-11-24T22:21:12.668Z,47.67
2022-11-24T22:23:42.205Z,46.60
2022-11-24T22:26:13.959Z,47.67
2022-11-24T22:28:42.652Z,47.37
2022-11-24T22:31:14.910Z,49.40
2022-11-24T22:33:43.682Z,51.33
2022-11-24T22:36:12.303Z,52.03
2022-11-24T22:38:42.285Z,51.53
2022-11-24T22:41:12.533Z,51.33
2022-11-24T22:43:42.057Z,53.17
2022-11-24T22:46:12.524Z,53.50
2022-11-24T22:48:41.217Z,53.07
2022-11-24T22:51:10.678Z,51.13
2022-11-24T22:53:39.052Z,53.77
2022-11-24T22:56:10.956Z,53.03
2022-11-24T22:58:39.915Z,54.47
2022-11-24T23:01:09.421Z,54.03
2022-11-24T23:03:38.343Z,56.07
2022-11-24T23:06:08.409Z,55.40
2022-11-24T23:08:37.566Z,54.33
2022-11-24T23:11:09.071Z,55.13
2022-11-24T23:13:37.813Z,53.93
2022-11-24T23:16:07.591Z,54.17
2022-11-24T23:18:36.675Z,55.83
2022-11-24T23:21:09.161Z,54.80
2022-11-24T23:23:37.569Z,55.93
2022-11-24T23:26:09.237Z,57.53
2022-11-24T23:28:37.996Z,58.83
2022-11-24T23:31:08.412Z,61.13
2022-11-24T23:33:37.101Z,61.87
2022-11-24T23:36:07.616Z,63.20
2022-11-24T23:38:36.165Z,64.83
2022-11-24T23:41:07.030Z,67.93
2022-11-24T23:43:36.915Z,75.63
2022-11-24T23:46:05.963Z,78.53
2022-11-24T23:48:34.694Z,77.23
2022-11-24T23:51:07.255Z,76.53
2022-11-24T23:53:35.874Z,76.67
2022-11-24T23:56:04.663Z,76.70
2022-11-24T23:58:33.649Z,76.27
